Time;durP1;ratioP1;P1;durP2;ratioP2;P2;SDS_P1;SDS_P2;PMS_P1;PMS_P2;Temp;Humidity;BMP_temperature;BMP_pressure;BME280_temperature;BME280_humidity;BME280_pressure;Samples;Min_cycle;Max_cycle;Signal;HPM_P1;HPM_P2
2023/04/23 08:20:48;;;;;;;;;;;;;;;17.68;59.40;100195.69;1262525;23;1070;-71
2023/04/23 08:21:38;;;;;;;;;;;;;;;17.63;58.82;100200.69;1262662;23;629;-70
2023/04/23 08:22:28;;;;;;;;;;;;;;;17.67;59.29;100193.16;1261082;23;646;-69
2023/04/23 08:23:19;;;;;;;;;;;;;;;17.74;59.64;100196.03;1262239;23;665;-69
2023/04/23 08:24:09;;;;;;;;;;;;;;;17.83;59.82;100200.47;1262947;23;645;-71
2023/04/23 08:25:00;;;;;;;;;;;;;;;17.81;58.52;100197.94;1261876;23;653;-71
2023/04/23 08:25:50;;;;;;;;;;;;;;;17.86;59.52;100192.91;1262671;23;716;-71
2023/04/23 08:26:41;;;;;;;;;;;;;;;17.94;59.04;100186.69;1261906;23;627;-70
2023/04/23 08:27:31;;;;;;;;;;;;;;;18.01;59.53;100191.28;1262337;23;641;-69
2023/04/23 08:28:21;;;;;;;;;;;;;;;18.08;58.33;100186.09;1261205;23;642;-71
2023/04/23 08:29:12;;;;;;;;;;;;;;;18.08;58.50;100194.19;1262068;23;673;-71
2023/04/23 08:30:03;;;;;;;;;;;;;;;18.09;58.07;100189.63;1260977;23;672;-70
2023/04/23 08:30:53;;;;;;;;;;;;;;;18.09;57.61;100187.78;1261775;23;646;-71
2023/04/23 08:31:44;;;;;;;;;;;;;;;18.10;58.95;100189.44;1261542;23;677;-70
2023/04/23 08:32:34;;;;;;;;;;;;;;;18.12;57.62;100189.28;1262796;23;649;-70
2023/04/23 08:33:25;;;;;;;;;;;;;;;18.13;57.87;100183.72;1262111;23;646;-70
2023/04/23 08:34:15;;;;;;;;;;;;;;;18.09;57.07;100189.63;1261425;23;626;-70
2023/04/23 08:35:06;;;;;;;;;;;;;;;18.05;58.04;100186.41;1261841;23;704;-70
2023/04/23 08:35:57;;;;;;;;;;;;;;;18.10;57.62;100189.44;1261933;23;646;-71
2023/04/23 08:36:48;;;;;;;;;;;;;;;18.11;57.62;100187.59;1261209;23;674;-70
2023/04/23 08:37:39;;;;;;;;;;;;;;;18.15;58.07;100188.94;1261768;23;646;-71
2023/04/23 08:38:29;;;;;;;;;;;;;;;18.20;57.85;100192.84;1261587;23;651;-70
2023/04/23 08:39:20;;;;;;;;;;;;;;;18.20;57.13;100195.56;1261947;23;602;-70
2023/04/23 08:40:10;;;;;;;;;;;;;;;18.25;57.13;100192.38;1261771;23;669;-70
2023/04/23 08:41:00;;;;;;;;;;;;;;;18.20;56.85;100195.56;1261719;23;584;-70
2023/04/23 08:41:51;;;;;;;;;;;;;;;18.24;56.87;100196.91;1262960;23;657;-70
2023/04/23 08:42:42;;;;;;;;;;;;;;;18.15;57.32;100184.41;1261870;23;746;-70
2023/04/23 08:43:33;;;;;;;;;;;;;;;18.20;58.08;100195.56;1261196;23;634;-70
2023/04/23 08:44:24;;;;;;;;;;;;;;;18.20;56.59;100195.56;1260824;23;674;-70
2023/04/23 08:45:14;;;;;;;;;;;;;;;18.24;57.26;100187.97;1261575;23;848;-69
2023/04/23 08:46:05;;;;;;;;;;;;;;;18.27;56.63;100191.16;1261822;23;759;-69
2023/04/23 08:46:55;;;;;;;;;;;;;;;18.34;57.43;100189.50;1261283;23;622;-69
2023/04/23 08:47:46;;;;;;;;;;;;;;;18.28;57.14;100190.16;1261024;23;681;-70
2023/04/23 08:48:36;;;;;;;;;;;;;;;18.34;57.74;100189.50;1262189;23;729;-70
2023/04/23 08:49:28;;;;;;;;;;;;;;;18.36;56.83;100195.59;1262707;23;638;-70
2023/04/23 08:50:22;;;;;;;;;;;;;;;18.42;56.40;100191.38;1261864;23;681;-70
2023/04/23 08:51:12;;;;;;;;;;;;;;;18.43;56.49;100193.09;1261892;23;673;-70
2023/04/23 08:52:02;;;;;;;;;;;;;;;18.44;56.64;100191.22;1261584;23;655;-70
2023/04/23 08:52:53;;;;;;;;;;;;;;;18.41;56.49;100191.56;1262016;23;630;-71
2023/04/23 08:53:44;;;;;;;;;;;;;;;18.34;56.26;100192.22;1261572;23;655;-70
2023/04/23 08:54:35;;;;;;;;;;;;;;;18.34;56.26;100194.91;1261697;23;610;-70
2023/04/23 08:55:25;;;;;;;;;;;;;;;18.35;55.25;100193.91;1261032;23;720;-70
2023/04/23 08:56:15;;;;;;;;;;;;;;;18.33;55.65;100190.50;1261427;23;1847;-70
2023/04/23 08:57:06;;;;;;;;;;;;;;;18.26;55.24;100184.13;1261750;23;611;-71
2023/04/23 08:57:56;;;;;;;;;;;;;;;18.27;56.45;100188.47;1262019;23;662;-69
2023/04/23 08:58:47;;;;;;;;;;;;;;;18.23;56.29;100195.22;1263022;23;670;-71
2023/04/23 08:59:37;;;;;;;;;;;;;;;18.23;56.01;100189.84;1262266;23;638;-70
2023/04/23 09:00:27;;;;;;;;;;;;;;;18.18;56.54;100194.88;1262812;23;744;-71
2023/04/23 09:01:18;;;;;;;;;;;;;;;18.20;55.84;100183.91;1262042;23;662;-70
2023/04/23 09:02:09;;;;;;;;;;;;;;;18.08;55.77;100182.53;1261727;23;939;-70
2023/04/23 09:02:59;;;;;;;;;;;;;;;18.06;56.71;100185.41;1261994;23;709;-69
2023/04/23 09:03:50;;;;;;;;;;;;;;;18.10;56.68;100186.75;1261718;23;666;-69
2023/04/23 09:04:40;;;;;;;;;;;;;;;18.21;57.01;100189.16;1262649;23;693;-71
2023/04/23 09:05:31;;;;;;;;;;;;;;;18.31;56.76;100183.59;1261621;23;622;-70
2023/04/23 09:06:21;;;;;;;;;;;;;;;18.35;56.01;100190.34;1262502;23;633;-70
2023/04/23 09:07:12;;;;;;;;;;;;;;;18.40;56.18;100190.72;1261772;23;635;-71
2023/04/23 09:08:02;;;;;;;;;;;;;;;18.36;55.49;100181.25;1261441;23;653;-69
2023/04/23 09:08:53;;;;;;;;;;;;;;;18.33;55.75;100182.41;1261099;23;767;-72
2023/04/23 09:09:43;;;;;;;;;;;;;;;18.42;55.92;100185.16;1262096;23;701;-71
2023/04/23 09:10:35;;;;;;;;;;;;;;;18.43;55.14;100184.13;1261618;23;784;-70
2023/04/23 09:11:26;;;;;;;;;;;;;;;18.44;54.62;100189.38;1261560;23;662;-70
2023/04/23 09:12:16;;;;;;;;;;;;;;;18.40;55.34;100177.22;1261626;23;658;-72
2023/04/23 09:13:06;;;;;;;;;;;;;;;18.45;54.83;100190.22;1261610;23;653;-69
2023/04/23 09:13:57;;;;;;;;;;;;;;;18.43;56.24;100189.53;1261220;23;662;-70
2023/04/23 09:14:47;;;;;;;;;;;;;;;18.42;55.12;100187.84;1261435;23;686;-70
2023/04/23 09:15:42;;;;;;;;;;;;;;;18.49;55.98;100188.84;1261878;23;678;-69
2023/04/23 09:16:32;;;;;;;;;;;;;;;18.57;55.24;100180.78;1262070;23;1920;-71
2023/04/23 09:17:23;;;;;;;;;;;;;;;18.55;55.26;100185.50;1261988;23;614;-70
2023/04/23 09:18:13;;;;;;;;;;;;;;;18.52;54.29;100180.44;1260008;23;736;-70
2023/04/23 09:19:04;;;;;;;;;;;;;;;18.52;55.14;100180.44;1260440;23;640;-70
2023/04/23 09:19:54;;;;;;;;;;;;;;;18.50;55.75;100187.84;1258923;23;682;-70
2023/04/23 09:20:45;;;;;;;;;;;;;;;18.59;55.25;100185.03;1259606;23;1187;-70
2023/04/23 09:21:36;;;;;;;;;;;;;;;18.69;55.05;100188.41;1267113;23;645;-71
2023/04/23 09:22:26;;;;;;;;;;;;;;;18.75;55.61;100181.50;1260020;23;657;-72
2023/04/23 09:23:17;;;;;;;;;;;;;;;18.85;55.68;100186.72;1259795;23;643;-70
2023/04/23 09:24:07;;;;;;;;;;;;;;;18.90;54.65;100179.81;1259589;23;654;-69
2023/04/23 09:24:57;;;;;;;;;;;;;;;18.96;54.80;100179.13;1260427;23;657;-70
2023/04/23 09:25:48;;;;;;;;;;;;;;;19.01;54.31;100175.91;1260358;23;708;-69
2023/04/23 09:26:38;;;;;;;;;;;;;;;19.04;55.07;100179.13;1260349;23;650;-69
2023/04/23 09:27:29;;;;;;;;;;;;;;;19.06;54.14;100174.38;1259825;23;618;-71
2023/04/23 09:28:19;;;;;;;;;;;;;;;19.08;53.93;100187.72;1261909;23;727;-70
2023/04/23 09:29:09;;;;;;;;;;;;;;;19.13;54.64;100184.53;1260005;23;642;-69
2023/04/23 09:30:03;;;;;;;;;;;;;;;19.12;54.28;100177.44;1260362;23;697;-71
2023/04/23 09:30:54;;;;;;;;;;;;;;;19.07;53.61;100186.88;1260567;23;680;-70
2023/04/23 09:31:46;;;;;;;;;;;;;;;19.00;53.35;100180.47;1260489;23;645;-71
2023/04/23 09:32:36;;;;;;;;;;;;;;;18.89;53.81;100183.50;1260731;23;653;-69
2023/04/23 09:33:27;;;;;;;;;;;;;;;18.82;53.63;100181.66;1260307;23;645;-71
2023/04/23 09:34:18;;;;;;;;;;;;;;;18.81;54.04;100180.81;1260731;23;630;-69
2023/04/23 09:35:08;;;;;;;;;;;;;;;18.87;53.60;100176.59;1259876;23;660;-70
2023/04/23 09:35:59;;;;;;;;;;;;;;;18.89;53.97;100178.13;1260470;23;661;-69
2023/04/23 09:36:49;;;;;;;;;;;;;;;18.89;53.65;100178.13;1260639;23;676;-70
2023/04/23 09:37:40;;;;;;;;;;;;;;;18.86;53.84;100169.50;1260401;23;673;-69
2023/04/23 09:38:31;;;;;;;;;;;;;;;18.88;54.05;100178.28;1260361;23;669;-69
2023/04/23 09:39:21;;;;;;;;;;;;;;;18.83;53.93;100173.38;1266915;23;754;-70
2023/04/23 09:40:11;;;;;;;;;;;;;;;18.84;53.81;100174.22;1266277;23;728;-69
2023/04/23 09:41:02;;;;;;;;;;;;;;;18.81;53.20;100172.69;1260533;23;657;-69
2023/04/23 09:41:52;;;;;;;;;;;;;;;18.85;54.22;100174.06;1260346;23;645;-71
2023/04/23 09:42:43;;;;;;;;;;;;;;;18.84;52.59;100175.06;1260575;23;621;-69
2023/04/23 09:43:33;;;;;;;;;;;;;;;18.87;53.74;100174.75;1260806;23;646;-71
2023/04/23 09:44:25;;;;;;;;;;;;;;;18.92;53.70;100169.69;1260519;23;613;-70
2023/04/23 09:45:15;;;;;;;;;;;;;;;18.98;54.54;100160.06;1267171;23;841;-70
2023/04/23 09:46:06;;;;;;;;;;;;;;;18.98;53.56;100171.72;1265938;23;610;-69
2023/04/23 09:46:56;;;;;;;;;;;;;;;19.02;53.79;100172.19;1260628;23;681;-70
2023/04/23 09:47:47;;;;;;;;;;;;;;;19.02;53.11;100161.38;1260362;23;673;-70
2023/04/23 09:48:37;;;;;;;;;;;;;;;18.94;52.22;100166.81;1259344;23;665;-69
2023/04/23 09:49:27;;;;;;;;;;;;;;;18.94;53.38;100166.81;1259257;23;638;-70
2023/04/23 09:50:18;;;;;;;;;;;;;;;18.92;53.72;100164.28;1259884;23;685;-69
2023/04/23 09:51:08;;;;;;;;;;;;;;;18.93;54.06;100165.97;1260728;23;642;-69
2023/04/23 09:51:59;;;;;;;;;;;;;;;18.92;53.34;100172.38;1266550;23;637;-70
2023/04/23 09:52:50;;;;;;;;;;;;;;;18.93;53.79;100168.66;1266187;23;708;-69
2023/04/23 09:53:41;;;;;;;;;;;;;;;18.94;53.21;100164.97;1260647;23;822;-70
2023/04/23 09:54:31;;;;;;;;;;;;;;;19.01;53.74;100171.34;1260250;23;751;-71
2023/04/23 09:55:22;;;;;;;;;;;;;;;18.96;52.51;100162.09;1260582;23;662;-70
2023/04/23 09:56:12;;;;;;;;;;;;;;;19.00;53.83;100166.13;1260413;23;1944;-70
2023/04/23 09:57:04;;;;;;;;;;;;;;;19.09;52.89;100167.81;1267129;23;657;-71
2023/04/23 09:57:55;;;;;;;;;;;;;;;19.04;52.57;100162.91;1266008;23;610;-70
2023/04/23 09:58:45;;;;;;;;;;;;;;;18.96;52.81;100165.63;1260125;23;704;-69
2023/04/23 09:59:36;;;;;;;;;;;;;;;18.99;53.29;100162.56;1260224;23;618;-71
2023/04/23 10:00:29;;;;;;;;;;;;;;;19.08;53.64;100166.97;1260347;23;617;-71
2023/04/23 10:01:19;;;;;;;;;;;;;;;19.19;54.39;100164.91;1260094;23;657;-71
2023/04/23 10:02:10;;;;;;;;;;;;;;;19.26;53.33;100164.06;1260324;23;645;-71
2023/04/23 10:03:01;;;;;;;;;;;;;;;19.31;53.06;100160.84;1260292;23;729;-71
2023/04/23 10:03:51;;;;;;;;;;;;;;;19.33;53.11;100165.06;1259933;23;673;-71
2023/04/23 10:04:42;;;;;;;;;;;;;;;19.32;51.84;100162.53;1260436;23;555;-70
2023/04/23 10:05:32;;;;;;;;;;;;;;;19.19;51.93;100164.91;1260387;23;688;-71
2023/04/23 10:06:23;;;;;;;;;;;;;;;19.12;51.97;100164.78;1261243;23;602;-71
2023/04/23 10:07:13;;;;;;;;;;;;;;;19.03;52.17;100161.22;1260421;23;688;-70
2023/04/23 10:08:04;;;;;;;;;;;;;;;19.08;52.16;100172.38;1260616;23;657;-70
2023/04/23 10:08:55;;;;;;;;;;;;;;;19.15;52.95;100164.44;1260393;23;700;-69
2023/04/23 10:09:45;;;;;;;;;;;;;;;19.22;53.40;100157.31;1261204;23;806;-69
2023/04/23 10:10:36;;;;;;;;;;;;;;;19.27;52.11;100149.53;1260516;23;646;-69
2023/04/23 10:11:26;;;;;;;;;;;;;;;19.26;51.83;100155.13;1260646;23;673;-70
2023/04/23 10:12:16;;;;;;;;;;;;;;;19.25;52.12;100150.72;1261322;23;641;-70
2023/04/23 10:13:07;;;;;;;;;;;;;;;19.23;51.83;100163.56;1260294;23;622;-69
2023/04/23 10:13:57;;;;;;;;;;;;;;;19.17;52.17;100158.88;1261328;23;641;-70
2023/04/23 10:14:49;;;;;;;;;;;;;;;19.22;52.17;100164.56;1260284;23;638;-70
2023/04/23 10:15:40;;;;;;;;;;;;;;;19.24;53.12;100160.69;1260454;23;650;-70
2023/04/23 10:16:30;;;;;;;;;;;;;;;19.32;53.13;100157.13;1260179;23;1893;-70
2023/04/23 10:17:21;;;;;;;;;;;;;;;19.31;52.51;100163.56;1260329;23;638;-70
2023/04/23 10:18:11;;;;;;;;;;;;;;;19.36;52.77;100159.28;1260472;23;591;-70
2023/04/23 10:19:02;;;;;;;;;;;;;;;19.37;51.74;100166.38;1260344;23;594;-70
2023/04/23 10:19:52;;;;;;;;;;;;;;;19.44;52.43;100155.75;1260391;23;618;-71
2023/04/23 10:20:42;;;;;;;;;;;;;;;19.50;52.93;100155.09;1260298;23;1091;-71
2023/04/23 10:21:33;;;;;;;;;;;;;;;19.52;52.54;100153.06;1261013;23;906;-70
2023/04/23 10:22:23;;;;;;;;;;;;;;;19.54;53.10;100153.69;1260359;23;654;-70
2023/04/23 10:23:14;;;;;;;;;;;;;;;19.54;52.63;100156.41;1260205;23;704;-70
2023/04/23 10:24:05;;;;;;;;;;;;;;;19.56;52.20;100154.38;1261953;23;677;-70
2023/04/23 10:24:57;;;;;;;;;;;;;;;19.59;51.39;100158.59;1260802;23;673;-71
2023/04/23 10:25:47;;;;;;;;;;;;;;;19.58;51.49;100151.50;1260757;23;669;-70
2023/04/23 10:26:38;;;;;;;;;;;;;;;19.60;52.54;100150.31;1260109;23;646;-69
2023/04/23 10:27:29;;;;;;;;;;;;;;;19.57;51.55;100150.66;1259995;23;642;-69
2023/04/23 10:28:25;;;;;;;;;;;;;;;19.38;52.14;100159.13;1260134;23;712;-69
2023/04/23 10:29:16;;;;;;;;;;;;;;;19.20;51.87;100159.34;1260528;23;733;-70
2023/04/23 10:30:07;;;;;;;;;;;;;;;19.06;53.64;100152.78;1259931;23;665;-69
2023/04/23 10:30:57;;;;;;;;;;;;;;;18.99;53.62;100159.03;1260166;23;631;-70
2023/04/23 10:31:48;;;;;;;;;;;;;;;18.91;53.67;100148.25;1261179;23;635;-71
2023/04/23 10:32:38;;;;;;;;;;;;;;;18.86;53.47;100150.59;1261492;23;703;-71
2023/04/23 10:33:28;;;;;;;;;;;;;;;18.81;54.59;100139.50;1260711;23;627;-71
2023/04/23 10:34:19;;;;;;;;;;;;;;;18.78;53.70;100147.94;1261274;23;630;-71
2023/04/23 10:35:09;;;;;;;;;;;;;;;18.75;54.49;100149.09;1260300;23;673;-71
2023/04/23 10:36:00;;;;;;;;;;;;;;;18.72;54.14;100144.88;1260264;23;642;-71
2023/04/23 10:36:51;;;;;;;;;;;;;;;18.69;54.25;100147.91;1260294;23;681;-69
2023/04/23 10:37:41;;;;;;;;;;;;;;;18.67;54.56;100147.25;1260308;23;630;-69
2023/04/23 10:38:32;;;;;;;;;;;;;;;18.67;53.66;100143.69;1260020;23;709;-69
2023/04/23 10:39:22;;;;;;;;;;;;;;;18.67;54.24;100146.41;1260242;23;654;-71
2023/04/23 10:40:13;;;;;;;;;;;;;;;18.65;54.17;100140.31;1261310;23;626;-69
2023/04/23 10:41:03;;;;;;;;;;;;;;;18.63;53.97;100143.19;1260252;23;746;-70
2023/04/23 10:41:53;;;;;;;;;;;;;;;18.61;54.30;100136.28;1260378;23;650;-70
2023/04/23 10:42:44;;;;;;;;;;;;;;;18.59;54.07;100143.72;1260591;23;627;-70
2023/04/23 10:43:35;;;;;;;;;;;;;;;18.59;53.75;100135.63;1260216;23;650;-70
2023/04/23 10:44:25;;;;;;;;;;;;;;;18.58;54.45;100129.34;1260260;23;647;-70
2023/04/23 10:45:15;;;;;;;;;;;;;;;18.57;54.08;100129.50;1260349;23;646;-70
2023/04/23 10:46:06;;;;;;;;;;;;;;;18.56;54.87;100138.63;1260109;23;626;-70
2023/04/23 10:46:56;;;;;;;;;;;;;;;18.52;54.39;100132.69;1260563;23;682;-70
2023/04/23 10:47:47;;;;;;;;;;;;;;;18.52;54.34;100121.91;1261328;23;710;-70
2023/04/23 10:48:37;;;;;;;;;;;;;;;18.51;55.48;100127.47;1260574;23;678;-70
2023/04/23 10:49:28;;;;;;;;;;;;;;;18.50;54.73;100121.22;1261055;23;647;-70
2023/04/23 10:50:19;;;;;;;;;;;;;;;18.48;54.80;100119.72;1260230;23;634;-70
2023/04/23 10:51:09;;;;;;;;;;;;;;;18.49;54.82;100118.69;1261034;23;654;-69
2023/04/23 10:52:00;;;;;;;;;;;;;;;18.49;54.53;100113.31;1260197;23;678;-69
2023/04/23 10:52:52;;;;;;;;;;;;;;;18.47;55.17;100118.03;1261209;23;650;-70
2023/04/23 10:53:43;;;;;;;;;;;;;;;18.45;55.50;100118.19;1260485;23;607;-69
2023/04/23 10:54:33;;;;;;;;;;;;;;;18.45;54.72;100120.06;1260361;23;674;-69
2023/04/23 10:55:24;;;;;;;;;;;;;;;18.45;55.10;100118.19;1261598;23;652;-71
2023/04/23 10:56:15;;;;;;;;;;;;;;;18.43;53.89;100116.69;1260577;23;1889;-70
2023/04/23 10:57:05;;;;;;;;;;;;;;;18.43;53.76;100112.13;1260986;23;618;-69
2023/04/23 10:57:59;;;;;;;;;;;;;;;18.41;53.70;100106.06;1260329;23;605;-71
2023/04/23 10:58:50;;;;;;;;;;;;;;;18.43;54.16;100111.28;1260488;23;645;-71
2023/04/23 10:59:40;;;;;;;;;;;;;;;18.42;55.04;100110.44;1260129;23;662;-69
2023/04/23 11:00:31;;;;;;;;;;;;;;;18.42;53.88;100115.84;1260086;23;627;-69
2023/04/23 11:01:21;;;;;;;;;;;;;;;18.38;53.26;100107.25;1259815;23;607;-70
2023/04/23 11:02:11;;;;;;;;;;;;;;;18.38;54.81;100109.94;1259906;23;669;-70
2023/04/23 11:03:02;;;;;;;;;;;;;;;18.37;55.44;100108.25;1259473;23;826;-70
2023/04/23 11:03:52;;;;;;;;;;;;;;;18.37;54.69;100102.00;1260261;23;657;-71
2023/04/23 11:04:43;;;;;;;;;;;;;;;18.38;54.63;100109.09;1260095;23;924;-71
2023/04/23 11:05:33;;;;;;;;;;;;;;;18.36;54.62;100105.72;1260146;23;665;-71
2023/04/23 11:06:24;;;;;;;;;;;;;;;18.36;54.32;100101.16;1260252;23;674;-70
2023/04/23 11:07:14;;;;;;;;;;;;;;;18.36;53.91;100103.03;1261214;23;618;-70
2023/04/23 11:08:05;;;;;;;;;;;;;;;18.36;54.11;100098.47;1260346;23;636;-70
2023/04/23 11:08:55;;;;;;;;;;;;;;;18.35;53.85;100104.88;1260940;23;610;-70
2023/04/23 11:09:46;;;;;;;;;;;;;;;18.34;53.75;100105.88;1260474;23;619;-70
2023/04/23 11:10:36;;;;;;;;;;;;;;;18.35;53.73;100102.19;1261648;23;645;-70
2023/04/23 11:11:27;;;;;;;;;;;;;;;18.33;53.47;100098.81;1260937;23;638;-70
2023/04/23 11:12:17;;;;;;;;;;;;;;;18.32;53.64;100105.19;1260989;23;707;-71
2023/04/23 11:13:07;;;;;;;;;;;;;;;18.29;52.81;100100.13;1259606;23;690;-71
2023/04/23 11:13:58;;;;;;;;;;;;;;;18.29;54.00;100102.84;1260150;23;674;-70
2023/04/23 11:14:48;;;;;;;;;;;;;;;18.29;54.13;100092.03;1260161;23;902;-70
2023/04/23 11:15:39;;;;;;;;;;;;;;;18.29;53.97;100091.19;1260290;23;626;-69
2023/04/23 11:16:29;;;;;;;;;;;;;;;18.27;52.89;100094.06;1259460;23;1889;-70
2023/04/23 11:17:20;;;;;;;;;;;;;;;18.24;53.70;100093.56;1260323;23;666;-70
2023/04/23 11:18:10;;;;;;;;;;;;;;;18.24;52.95;100097.13;1260984;23;744;-69
2023/04/23 11:19:05;;;;;;;;;;;;;;;18.22;53.83;100099.13;1260904;23;802;-69
2023/04/23 11:19:55;;;;;;;;;;;;;;;18.22;53.88;100091.03;1260610;23;637;-68
2023/04/23 11:20:45;;;;;;;;;;;;;;;18.23;53.30;100095.44;1261217;23;657;-71
2023/04/23 11:21:36;;;;;;;;;;;;;;;18.20;53.37;100089.53;1260203;23;610;-69
2023/04/23 11:22:26;;;;;;;;;;;;;;;18.17;52.77;100090.69;1260261;23;666;-69
2023/04/23 11:23:17;;;;;;;;;;;;;;;18.16;52.52;100089.00;1260040;23;661;-69
2023/04/23 11:24:07;;;;;;;;;;;;;;;18.16;52.83;100085.47;1261268;23;621;-69
2023/04/23 11:24:58;;;;;;;;;;;;;;;18.17;53.73;100082.59;1260335;23;613;-69
2023/04/23 11:25:48;;;;;;;;;;;;;;;18.19;54.37;100083.28;1266708;23;661;-69
2023/04/23 11:26:39;;;;;;;;;;;;;;;18.20;53.38;100081.44;1265486;23;649;-69
2023/04/23 11:27:29;;;;;;;;;;;;;;;18.19;53.38;100087.84;1260267;23;645;-69
2023/04/23 11:28:20;;;;;;;;;;;;;;;18.19;53.25;100083.28;1260087;23;627;-69
2023/04/23 11:29:13;;;;;;;;;;;;;;;18.19;53.47;100083.28;1261018;23;688;-69
2023/04/23 11:30:04;;;;;;;;;;;;;;;18.19;52.84;100080.59;1260261;23;586;-69
2023/04/23 11:30:54;;;;;;;;;;;;;;;18.20;53.75;100078.72;1260289;23;684;-69
2023/04/23 11:31:45;;;;;;;;;;;;;;;18.20;54.02;100074.19;1260155;23;649;-69
2023/04/23 11:32:35;;;;;;;;;;;;;;;18.19;53.47;100083.28;1259894;23;658;-69
2023/04/23 11:33:25;;;;;;;;;;;;;;;18.21;53.62;100069.63;1260183;23;574;-69
2023/04/23 11:34:16;;;;;;;;;;;;;;;18.21;54.17;100072.34;1260164;23;665;-69
2023/04/23 11:35:08;;;;;;;;;;;;;;;18.19;52.68;100066.25;1260560;23;669;-69
2023/04/23 11:35:58;;;;;;;;;;;;;;;18.18;53.54;100069.97;1260372;23;657;-68
2023/04/23 11:36:48;;;;;;;;;;;;;;;18.18;53.28;100070.81;1260562;23;700;-68
2023/04/23 11:37:39;;;;;;;;;;;;;;;18.15;52.92;100071.13;1260131;23;669;-70
2023/04/23 11:38:30;;;;;;;;;;;;;;;18.14;53.22;100064.06;1259984;23;618;-68
2023/04/23 11:39:20;;;;;;;;;;;;;;;18.13;53.21;100065.06;1260275;23;676;-70
2023/04/23 11:40:12;;;;;;;;;;;;;;;18.16;54.03;100061.19;1260205;23;658;-70
2023/04/23 11:41:04;;;;;;;;;;;;;;;18.14;53.34;100058.66;1260402;23;637;-69
2023/04/23 11:41:54;;;;;;;;;;;;;;;18.15;53.13;100052.25;1260402;23;641;-70
2023/04/23 11:42:46;;;;;;;;;;;;;;;18.15;54.49;100048.72;1260337;23;645;-70
2023/04/23 11:43:36;;;;;;;;;;;;;;;18.17;54.67;100052.94;1260223;23;658;-69
2023/04/23 11:44:27;;;;;;;;;;;;;;;18.16;54.34;100051.25;1260685;23;650;-70
2023/04/23 11:45:17;;;;;;;;;;;;;;;18.16;53.39;100040.47;1260478;23;657;-69
2023/04/23 11:46:08;;;;;;;;;;;;;;;18.17;53.98;100047.53;1261196;23;661;-70
2023/04/23 11:46:59;;;;;;;;;;;;;;;18.17;53.82;100046.69;1261261;23;673;-70
2023/04/23 11:47:50;;;;;;;;;;;;;;;18.16;53.82;100040.47;1260235;23;614;-68
2023/04/23 11:48:40;;;;;;;;;;;;;;;18.16;52.98;100037.78;1260095;23;649;-68
2023/04/23 11:49:30;;;;;;;;;;;;;;;18.16;53.92;100037.78;1260278;23;654;-69
2023/04/23 11:50:21;;;;;;;;;;;;;;;18.16;53.86;100031.53;1260070;23;614;-69
2023/04/23 11:51:11;;;;;;;;;;;;;;;18.16;53.55;100035.06;1260465;23;755;-68
2023/04/23 11:52:02;;;;;;;;;;;;;;;18.16;53.25;100032.38;1260359;23;676;-69
2023/04/23 11:52:52;;;;;;;;;;;;;;;18.17;53.60;100031.38;1260259;23;637;-69
2023/04/23 11:53:43;;;;;;;;;;;;;;;18.15;53.69;100033.38;1260295;23;642;-68
2023/04/23 11:54:33;;;;;;;;;;;;;;;18.17;53.74;100030.53;1261203;23;622;-69
2023/04/23 11:55:24;;;;;;;;;;;;;;;18.15;53.94;100019.91;1260729;23;677;-70
2023/04/23 11:56:14;;;;;;;;;;;;;;;18.16;53.88;100028.84;1260348;23;661;-69
2023/04/23 11:57:05;;;;;;;;;;;;;;;18.17;53.67;100022.44;1260311;23;638;-69
2023/04/23 11:57:56;;;;;;;;;;;;;;;18.15;53.66;100019.91;1260180;23;661;-68
2023/04/23 11:58:46;;;;;;;;;;;;;;;18.16;53.85;100024.28;1260175;23;677;-69
2023/04/23 11:59:36;;;;;;;;;;;;;;;18.16;54.51;100024.28;1260458;23;696;-70
2023/04/23 12:00:27;;;;;;;;;;;;;;;18.15;53.32;100022.59;1260367;23;736;-68
2023/04/23 12:01:17;;;;;;;;;;;;;;;18.15;53.71;100019.06;1260214;23;657;-70
2023/04/23 12:02:08;;;;;;;;;;;;;;;18.14;53.28;100015.53;1261056;23;645;-69
2023/04/23 12:02:58;;;;;;;;;;;;;;;18.16;53.54;100021.59;1260922;23;649;-68
2023/04/23 12:03:49;;;;;;;;;;;;;;;18.15;52.85;100013.66;1260372;23;754;-69
2023/04/23 12:04:39;;;;;;;;;;;;;;;18.14;53.64;100020.91;1260046;23;590;-69
2023/04/23 12:05:30;;;;;;;;;;;;;;;18.15;52.04;100024.44;1260605;23;673;-69
2023/04/23 12:06:20;;;;;;;;;;;;;;;18.14;52.86;100020.91;1260127;23;657;-69
2023/04/23 12:07:11;;;;;;;;;;;;;;;18.14;52.91;100017.38;1260333;23;638;-69
2023/04/23 12:08:01;;;;;;;;;;;;;;;18.13;53.42;100023.78;1260143;23;631;-69
2023/04/23 12:08:52;;;;;;;;;;;;;;;18.12;52.44;100014.84;1260007;23;666;-69
2023/04/23 12:09:42;;;;;;;;;;;;;;;18.12;53.02;100020.22;1260963;23;661;-69
2023/04/23 12:10:33;;;;;;;;;;;;;;;18.13;53.27;100021.06;1261093;23;661;-69
2023/04/23 12:11:23;;;;;;;;;;;;;;;18.12;52.91;100017.53;1260285;23;649;-69
2023/04/23 12:12:14;;;;;;;;;;;;;;;18.12;52.25;100014.00;1260169;23;642;-68
2023/04/23 12:13:04;;;;;;;;;;;;;;;18.11;51.81;100015.00;1260431;23;628;-69
2023/04/23 12:13:55;;;;;;;;;;;;;;;18.11;53.23;100020.41;1260228;23;665;-68
2023/04/23 12:14:45;;;;;;;;;;;;;;;18.11;51.72;100013.16;1259758;23;634;-68
2023/04/23 12:15:35;;;;;;;;;;;;;;;18.10;52.54;100008.78;1260102;23;630;-69
2023/04/23 12:16:26;;;;;;;;;;;;;;;18.10;52.96;100011.47;1260048;23;1877;-68
2023/04/23 12:17:16;;;;;;;;;;;;;;;18.10;52.77;100010.63;1260100;23;630;-68
2023/04/23 12:18:07;;;;;;;;;;;;;;;18.11;53.98;100010.47;1260587;23;730;-69
2023/04/23 12:18:57;;;;;;;;;;;;;;;18.12;53.95;100004.06;1260442;23;879;-69
2023/04/23 12:19:49;;;;;;;;;;;;;;;18.13;53.09;100003.03;1266956;23;661;-69
2023/04/23 12:20:40;;;;;;;;;;;;;;;18.11;52.36;100002.38;1265702;23;1074;-69
2023/04/23 12:21:31;;;;;;;;;;;;;;;18.13;52.92;100000.34;1260080;23;539;-70
2023/04/23 12:22:22;;;;;;;;;;;;;;;18.11;52.81;99996.97;1260120;23;756;-69
2023/04/23 12:23:12;;;;;;;;;;;;;;;18.09;52.10;100001.72;1259410;23;661;-68
2023/04/23 12:24:03;;;;;;;;;;;;;;;18.11;52.04;100004.22;1266747;23;668;-68
2023/04/23 12:24:54;;;;;;;;;;;;;;;18.10;52.74;99997.97;1259728;23;673;-69
2023/04/23 12:25:44;;;;;;;;;;;;;;;18.11;52.94;100005.06;1260591;23;630;-69
2023/04/23 12:26:35;;;;;;;;;;;;;;;18.12;52.51;100004.06;1261057;23;688;-68
2023/04/23 12:27:27;;;;;;;;;;;;;;;18.12;52.82;100001.34;1260197;23;677;-70
2023/04/23 12:28:17;;;;;;;;;;;;;;;18.11;52.28;100002.38;1260239;23;646;-68
2023/04/23 12:29:08;;;;;;;;;;;;;;;18.13;52.96;99997.66;1260080;23;705;-68
2023/04/23 12:29:58;;;;;;;;;;;;;;;18.13;53.43;99997.66;1266602;23;598;-68
2023/04/23 12:30:48;;;;;;;;;;;;;;;18.13;52.83;99996.81;1266164;23;771;-68
2023/04/23 12:31:39;;;;;;;;;;;;;;;18.12;53.95;100001.34;1260191;23;670;-68
2023/04/23 12:32:29;;;;;;;;;;;;;;;18.12;53.57;99995.97;1260294;23;653;-70
2023/04/23 12:33:20;;;;;;;;;;;;;;;18.12;52.95;99990.56;1259413;23;632;-69
2023/04/23 12:34:10;;;;;;;;;;;;;;;18.13;53.57;99992.25;1259381;23;626;-69
2023/04/23 12:35:01;;;;;;;;;;;;;;;18.13;54.52;99999.50;1259536;23;677;-69
2023/04/23 12:35:51;;;;;;;;;;;;;;;18.14;53.90;99993.09;1259212;23;642;-69
2023/04/23 12:36:42;;;;;;;;;;;;;;;18.13;53.60;99986.03;1259257;23;1909;-69
2023/04/23 12:37:32;;;;;;;;;;;;;;;18.13;53.84;99992.25;1260387;23;662;-69
2023/04/23 12:38:23;;;;;;;;;;;;;;;18.12;52.71;99984.34;1259667;23;697;-70
2023/04/23 12:39:13;;;;;;;;;;;;;;;18.11;52.20;99983.50;1261308;23;662;-69
2023/04/23 12:40:06;;;;;;;;;;;;;;;18.11;52.61;99980.78;1261075;23;646;-69
2023/04/23 12:40:56;;;;;;;;;;;;;;;18.12;52.16;99979.78;1261031;23;606;-69
2023/04/23 12:41:46;;;;;;;;;;;;;;;18.11;53.94;99982.66;1259423;23;624;-69
2023/04/23 12:42:37;;;;;;;;;;;;;;;18.10;52.38;99976.41;1259317;23;642;-69
2023/04/23 12:43:27;;;;;;;;;;;;;;;18.10;52.41;99971.03;1258865;23;674;-69
2023/04/23 12:44:18;;;;;;;;;;;;;;;18.10;52.20;99981.81;1259182;23;670;-69
2023/04/23 12:45:08;;;;;;;;;;;;;;;18.10;52.04;99973.72;1259568;23;642;-69
2023/04/23 12:45:59;;;;;;;;;;;;;;;18.09;53.06;99972.06;1259243;23;661;-69
2023/04/23 12:46:50;;;;;;;;;;;;;;;18.09;52.92;99969.38;1266662;23;660;-69
2023/04/23 12:47:40;;;;;;;;;;;;;;;18.10;51.63;99967.47;1266054;23;606;-68